LFRN/RNS METAR and TAF weather

Enter ICAO airport designator
Station Type Date Time Source
LFRN METAR 2020/07/11 23:00 UTC NOAA

LFRN 112300Z AUTO 03009KT CAVOK 15/06 Q1026 NOSIG


Station Type Date Time Source
LFRN Decoded METAR 2020/07/11 23:00 UTC NOAA

Rennes, France (LFRN) 48-04N 001-44W 37M
Jul 11, 2020 - 07:00 PM EDT / 2020.07.11 2300 UTC
Wind: from the NNE (030 degrees) at 10 MPH (9 KT):0
Visibility: greater than 7 mile(s):0
Temperature: 59 F (15 C)
Dew Point: 42 F (6 C)
Relative Humidity: 54%
Pressure (altimeter): 30.30 in. Hg (1026 hPa)
ob: LFRN 112300Z AUTO 03009KT CAVOK 15/06 Q1026 NOSIG
cycle: 23

Station Type Date Time Source
LFRN TAF 2020/07/11 18:21 UTC NOAA

TAF LFRN 111700Z 1118/1218 02010KT CAVOK
BECMG 1121/1124 VRB05KT PROB30
TEMPO 1203/1206 3000 BR
BECMG 1209/1212 03010KT

Example: see airport list